Time;durP1;ratioP1;P1;durP2;ratioP2;P2;SDS_P1;SDS_P2;PMS_P1;PMS_P2;Temp;Humidity;BMP_temperature;BMP_pressure;BME280_temperature;BME280_humidity;BME280_pressure;Samples;Min_cycle;Max_cycle;Signal;HPM_P1;HPM_P2
2022/09/30 00:00:19;;;;;;;9.00;4.03;;;;;;;9.63;66.96;100697.53;5016371;28;20033;-84
2022/09/30 00:02:44;;;;;;;12.35;4.05;;;;;;;9.71;66.52;100702.03;5015347;28;20030;-84
2022/09/30 00:05:09;;;;;;;5.07;4.00;;;;;;;9.71;66.61;100696.75;4999040;28;20038;-83
2022/09/30 00:07:35;;;;;;;8.52;4.15;;;;;;;9.67;67.05;100708.16;5016542;28;20030;-84
2022/09/30 00:10:00;;;;;;;10.90;4.15;;;;;;;9.63;66.73;100708.09;5016188;28;20037;-84
2022/09/30 00:12:26;;;;;;;9.63;4.18;;;;;;;9.70;66.51;100715.22;4998759;28;20109;-84
2022/09/30 00:14:52;;;;;;;6.70;4.05;;;;;;;9.61;66.55;100721.28;4998574;28;20428;-83
2022/09/30 00:17:17;;;;;;;7.88;4.45;;;;;;;9.52;66.82;100718.53;5016059;28;20022;-83
2022/09/30 00:19:43;;;;;;;6.78;3.67;;;;;;;9.40;67.27;100708.69;4999174;28;20056;-83
2022/09/30 00:22:08;;;;;;;5.97;3.90;;;;;;;9.41;67.66;100714.84;4998558;28;20030;-84
2022/09/30 00:24:33;;;;;;;10.13;4.05;;;;;;;9.35;67.97;100726.22;5015991;28;20029;-83
2022/09/30 00:26:59;;;;;;;5.63;3.97;;;;;;;9.32;67.70;100720.00;4998389;28;20033;-83
2022/09/30 00:29:24;;;;;;;7.50;4.15;;;;;;;9.39;67.45;100716.59;4998783;28;20073;-83
2022/09/30 00:31:50;;;;;;;6.75;4.00;;;;;;;9.46;67.11;100707.88;5015983;28;20481;-85
2022/09/30 00:34:16;;;;;;;6.60;4.10;;;;;;;9.42;66.73;100700.78;4998178;28;20057;-84
2022/09/30 00:36:43;;;;;;;8.50;4.10;;;;;;;9.45;66.77;100719.31;5015391;28;20026;-84
2022/09/30 00:39:14;;;;;;;6.80;4.32;;;;;;;9.21;67.04;100715.47;4997950;28;20033;-83
2022/09/30 00:41:41;;;;;;;9.85;4.20;;;;;;;9.02;68.13;100710.78;5015925;28;20465;-83
2022/09/30 00:44:44;;;;;;;5.93;4.05;;;;;;;8.95;68.22;100719.47;4998067;28;20458;-84
2022/09/30 00:47:47;;;;;;;6.13;4.05;;;;;;;8.80;68.43;100717.50;5015452;28;20030;-83
2022/09/30 00:50:15;;;;;;;5.90;4.07;;;;;;;8.89;68.75;100714.09;4997738;28;20446;-83
2022/09/30 00:52:45;;;;;;;6.70;4.28;;;;;;;8.95;68.46;100715.09;5015423;28;20129;-84
2022/09/30 00:55:24;;;;;;;4.95;4.15;;;;;;;9.07;67.73;100718.75;4981485;28;20073;-84
2022/09/30 00:57:50;;;;;;;5.55;4.20;;;;;;;9.05;67.96;100724.03;5015751;28;20458;-84
2022/09/30 01:00:15;;;;;;;8.38;4.32;;;;;;;9.04;68.07;100727.53;4997360;28;20034;-84
2022/09/30 01:02:41;;;;;;;8.10;4.15;;;;;;;9.07;67.42;100722.28;4998680;28;20061;-84
2022/09/30 01:05:08;;;;;;;9.30;4.40;;;;;;;9.01;67.42;100716.94;4981769;28;20117;-84
2022/09/30 01:07:35;;;;;;;5.45;4.20;;;;;;;9.11;67.38;100715.31;4997812;28;20030;-85
2022/09/30 01:10:02;;;;;;;7.22;4.70;;;;;;;9.02;67.50;100716.94;4965493;28;20049;-84
2022/09/30 01:12:27;;;;;;;7.55;4.43;;;;;;;9.07;67.11;100721.41;5014698;28;20076;-84
2022/09/30 01:14:55;;;;;;;5.97;4.53;;;;;;;9.02;67.03;100711.69;4997230;28;20026;-84
2022/09/30 01:17:51;;;;;;;7.75;4.40;;;;;;;9.08;66.67;100724.09;5014575;28;20422;-83
2022/09/30 01:20:29;;;;;;;6.55;4.53;;;;;;;9.01;66.99;100727.47;4998128;28;20048;-83
2022/09/30 01:23:10;;;;;;;6.90;4.50;;;;;;;8.95;66.93;100728.28;4997557;28;20470;-84
2022/09/30 01:25:50;;;;;;;8.88;4.75;;;;;;;8.98;67.07;100722.16;5014897;28;20033;-84
2022/09/30 01:28:40;;;;;;;9.23;4.80;;;;;;;8.97;66.65;100726.53;4997522;28;20112;-83
2022/09/30 01:31:51;;;;;;;7.95;4.97;;;;;;;8.90;66.66;100715.88;5014896;28;20354;-83
2022/09/30 01:34:45;;;;;;;7.57;4.97;;;;;;;8.96;66.17;100716.00;5001431;28;20041;-83
2022/09/30 01:37:38;;;;;;;9.35;5.40;;;;;;;8.92;66.44;100719.44;5014345;28;20034;-83
2022/09/30 01:40:11;;;;;;;9.18;5.57;;;;;;;8.85;66.82;100722.81;5014677;28;20036;-83
2022/09/30 01:42:44;;;;;;;9.90;5.22;;;;;;;8.75;67.18;100712.16;5014661;28;20072;-83
2022/09/30 01:45:22;;;;;;;7.53;5.38;;;;;;;8.67;67.05;100720.78;5014280;28;20466;-83
2022/09/30 01:48:30;;;;;;;9.55;5.82;;;;;;;8.66;67.17;100721.66;5014336;28;20022;-83
2022/09/30 01:51:04;;;;;;;9.27;5.38;;;;;;;8.50;67.61;100728.41;5014387;28;20033;-84
2022/09/30 01:53:34;;;;;;;9.40;5.30;;;;;;;8.43;68.05;100724.75;5014879;28;20054;-84
2022/09/30 01:56:09;;;;;;;8.93;5.03;;;;;;;8.46;67.52;100718.69;5015033;28;20084;-84
2022/09/30 01:58:46;;;;;;;11.32;5.47;;;;;;;8.52;67.08;100721.41;5015758;28;20018;-83
2022/09/30 02:01:23;;;;;;;8.18;5.30;;;;;;;8.55;67.65;100721.47;5015206;28;20053;-84
2022/09/30 02:03:55;;;;;;;8.82;5.72;;;;;;;8.50;67.80;100724.03;4997324;28;20022;-83
2022/09/30 02:06:28;;;;;;;8.55;5.60;;;;;;;8.38;68.04;100729.06;5014874;28;20025;-83
2022/09/30 02:09:02;;;;;;;8.75;5.22;;;;;;;8.18;68.11;100733.03;5014683;28;20021;-84
2022/09/30 02:11:31;;;;;;;8.93;5.97;;;;;;;8.14;68.68;100734.75;5014824;28;20029;-83
2022/09/30 02:14:03;;;;;;;11.00;5.72;;;;;;;8.14;68.75;100732.13;5014486;28;20064;-84
2022/09/30 02:16:38;;;;;;;10.18;5.78;;;;;;;8.09;68.82;100731.13;4996981;28;20057;-86
2022/09/30 02:19:29;;;;;;;12.90;6.05;;;;;;;8.11;68.56;100737.31;5012986;28;20033;-84
2022/09/30 02:22:02;;;;;;;10.43;5.88;;;;;;;8.00;69.19;100733.59;5014142;28;20107;-83
2022/09/30 02:24:34;;;;;;;7.75;5.50;;;;;;;8.06;69.15;100741.63;4997290;28;20022;-83
2022/09/30 02:27:04;;;;;;;8.15;5.90;;;;;;;8.14;68.95;100731.25;5017242;28;20100;-83
2022/09/30 02:29:39;;;;;;;9.95;5.88;;;;;;;8.26;68.89;100741.97;5001097;28;20446;-84
2022/09/30 02:32:14;;;;;;;10.48;6.35;;;;;;;8.28;67.66;100742.91;4988580;28;20367;-84
2022/09/30 02:34:49;;;;;;;10.00;5.57;;;;;;;8.21;67.90;100747.16;4978319;28;20105;-84
2022/09/30 02:37:38;;;;;;;10.57;6.15;;;;;;;8.21;67.91;100741.00;4978957;28;20106;-84
2022/09/30 02:40:23;;;;;;;11.65;6.28;;;;;;;8.12;68.09;100731.19;4993662;28;20033;-85
2022/09/30 02:42:49;;;;;;;9.40;5.75;;;;;;;7.92;68.83;100722.94;4979037;28;20033;-84
2022/09/30 02:45:18;;;;;;;9.23;5.85;;;;;;;7.87;69.40;100729.84;4977348;28;20387;-84
2022/09/30 02:47:43;;;;;;;11.50;6.10;;;;;;;7.73;69.26;100733.94;4978647;28;20161;-84
2022/09/30 02:50:34;;;;;;;9.63;6.30;;;;;;;7.68;69.96;100736.47;4978955;28;20117;-85
2022/09/30 02:53:07;;;;;;;12.93;6.32;;;;;;;7.51;71.02;100722.09;4972346;28;20399;-84
2022/09/30 02:55:38;;;;;;;;;;;;;;;7.60;68.82;100730.16;4979259;28;20434;-85
2022/09/30 02:58:20;;;;;;;11.35;6.30;;;;;;;7.48;70.68;100740.44;4978324;28;19906;-84
2022/09/30 03:00:46;;;;;;;9.25;5.97;;;;;;;7.42;71.18;100735.03;4978321;28;20022;-84
2022/09/30 03:03:20;;;;;;;10.35;5.82;;;;;;;7.49;71.40;100727.34;4978461;28;20153;-84
2022/09/30 03:05:48;;;;;;;14.93;6.15;;;;;;;7.59;70.50;100731.03;4978039;28;20038;-84
2022/09/30 03:08:13;;;;;;;10.20;5.15;;;;;;;7.74;70.97;100735.72;4978481;28;20027;-84
2022/09/30 03:10:39;;;;;;;7.20;5.38;;;;;;;7.70;69.87;100732.13;4977379;28;20498;-84
2022/09/30 03:13:29;;;;;;;8.50;5.30;;;;;;;7.68;69.64;100740.84;4993231;28;20035;-85
2022/09/30 03:16:06;;;;;;;8.63;5.80;;;;;;;7.70;69.83;100744.38;4978616;28;20035;-84
2022/09/30 03:19:11;;;;;;;9.80;5.85;;;;;;;7.68;69.58;100744.38;4976988;28;20026;-84
2022/09/30 03:22:09;;;;;;;8.18;5.63;;;;;;;7.63;70.41;100742.50;4976847;28;20026;-85
2022/09/30 03:24:50;;;;;;;7.55;5.30;;;;;;;7.69;70.70;100742.63;4978387;28;20058;-84
2022/09/30 03:27:35;;;;;;;7.95;5.78;;;;;;;7.65;70.52;100740.78;4978075;28;20031;-84
2022/09/30 03:30:06;;;;;;;7.47;5.38;;;;;;;7.53;70.03;100746.66;4978213;28;20034;-84
2022/09/30 03:32:35;;;;;;;11.65;6.07;;;;;;;7.46;70.21;100750.91;5003142;28;20129;-83
2022/09/30 03:35:13;;;;;;;7.78;5.35;;;;;;;7.45;70.15;100751.78;4999512;28;20046;-84
2022/09/30 03:37:56;;;;;;;8.90;5.55;;;;;;;7.43;70.23;100748.22;5015593;28;20037;-84
2022/09/30 03:40:29;;;;;;;7.15;5.32;;;;;;;7.42;70.07;100746.44;4999930;28;20359;-84
2022/09/30 03:43:03;;;;;;;9.95;5.65;;;;;;;7.37;70.67;100741.94;5017379;28;20025;-84
2022/09/30 03:45:38;;;;;;;7.65;5.90;;;;;;;7.35;70.31;100736.63;5017134;28;20026;-84
2022/09/30 03:48:07;;;;;;;8.73;5.95;;;;;;;7.31;70.46;100733.91;5017248;28;20025;-85
2022/09/30 03:50:35;;;;;;;8.65;5.72;;;;;;;7.35;70.92;100754.16;4999358;28;20160;-84
2022/09/30 03:53:02;;;;;;;8.20;5.75;;;;;;;7.38;69.81;100764.75;5016512;28;20036;-84
2022/09/30 03:55:28;;;;;;;11.95;6.38;;;;;;;7.35;71.83;100756.78;5016457;28;20040;-85
2022/09/30 03:57:53;;;;;;;11.40;6.70;;;;;;;7.39;70.86;100756.88;5016530;28;20030;-85
2022/09/30 04:00:19;;;;;;;10.38;6.18;;;;;;;7.37;71.24;100769.13;4998894;28;20041;-85
2022/09/30 04:02:44;;;;;;;11.38;6.18;;;;;;;7.30;70.28;100763.69;5016018;28;20113;-84
2022/09/30 04:05:10;;;;;;;9.57;7.00;;;;;;;7.20;71.51;100771.38;4999273;28;20121;-85
2022/09/30 04:07:35;;;;;;;12.32;7.32;;;;;;;7.12;71.61;100777.28;4998976;28;20116;-84
2022/09/30 04:10:01;;;;;;;9.50;7.65;;;;;;;7.14;72.96;100783.47;4998538;28;20034;-84
2022/09/30 04:12:26;;;;;;;11.82;7.93;;;;;;;7.23;72.34;100775.78;4982492;28;20037;-85
2022/09/30 04:14:51;;;;;;;9.50;7.25;;;;;;;7.28;72.39;100785.56;4982515;28;20065;-85
2022/09/30 04:17:17;;;;;;;9.52;7.00;;;;;;;7.33;71.48;100790.94;5016556;28;20092;-85
2022/09/30 04:19:43;;;;;;;11.02;7.00;;;;;;;7.41;70.97;100798.97;4999372;28;20337;-85
2022/09/30 04:22:08;;;;;;;9.23;7.13;;;;;;;7.45;71.00;100800.81;4998514;28;20029;-83
2022/09/30 04:24:34;;;;;;;9.43;7.30;;;;;;;7.41;70.42;100813.03;4982535;28;20057;-83
2022/09/30 04:27:00;;;;;;;11.05;7.38;;;;;;;7.33;70.62;100821.59;4998542;28;20041;-84
2022/09/30 04:29:26;;;;;;;10.95;7.30;;;;;;;7.31;70.74;100818.03;5016337;28;20156;-85
2022/09/30 04:31:51;;;;;;;14.05;7.70;;;;;;;7.39;70.79;100822.59;5015816;28;20529;-84
2022/09/30 04:34:17;;;;;;;15.18;9.20;;;;;;;7.39;72.77;100830.50;5016435;28;20034;-85
2022/09/30 04:36:42;;;;;;;13.52;9.05;;;;;;;7.36;73.26;100833.03;5015710;28;20469;-85
2022/09/30 04:39:08;;;;;;;13.27;9.63;;;;;;;7.37;73.31;100820.81;4998102;28;20520;-84
2022/09/30 04:41:33;;;;;;;11.82;7.65;;;;;;;7.37;71.87;100820.81;4998327;28;20033;-85
2022/09/30 04:44:04;;;;;;;29.05;9.05;;;;;;;7.48;72.20;100812.28;5015875;28;20469;-85
2022/09/30 04:46:30;;;;;;;18.98;9.90;;;;;;;7.51;72.28;100798.34;5015968;28;20465;-85
2022/09/30 04:48:56;;;;;;;13.60;9.35;;;;;;;7.66;71.54;100816.19;5015239;28;20022;-84
2022/09/30 04:51:21;;;;;;;16.05;9.73;;;;;;;7.77;71.86;100819.94;5015524;28;20032;-84
2022/09/30 04:53:47;;;;;;;13.98;9.25;;;;;;;7.73;71.46;100829.50;4998034;28;20536;-84
2022/09/30 04:56:15;;;;;;;14.68;8.77;;;;;;;7.66;70.78;100832.84;4998175;28;20034;-84
2022/09/30 04:58:41;;;;;;;14.18;9.20;;;;;;;7.59;70.79;100825.69;4997827;28;20373;-84
2022/09/30 05:01:10;;;;;;;13.43;8.63;;;;;;;7.51;70.20;100840.41;4981635;28;20458;-84
2022/09/30 05:03:36;;;;;;;12.60;7.82;;;;;;;7.51;71.02;100841.28;4997898;28;20036;-84
2022/09/30 05:06:03;;;;;;;8.82;7.35;;;;;;;7.59;70.69;100837.97;5015648;28;20034;-84
2022/09/30 05:08:28;;;;;;;9.32;7.47;;;;;;;7.67;70.30;100844.28;5015375;28;20037;-84
2022/09/30 05:10:56;;;;;;;11.05;7.88;;;;;;;7.68;70.52;100851.31;4998526;28;20034;-84
2022/09/30 05:13:22;;;;;;;10.50;7.40;;;;;;;7.61;69.78;100844.13;4998329;28;20390;-84
2022/09/30 05:15:48;;;;;;;11.48;7.50;;;;;;;7.52;70.64;100853.56;4998304;28;20113;-84
2022/09/30 05:18:14;;;;;;;10.65;7.70;;;;;;;7.51;70.21;100846.56;4997813;28;20382;-84
2022/09/30 05:20:42;;;;;;;11.02;7.30;;;;;;;7.57;70.40;100853.69;4997383;28;20044;-84
2022/09/30 05:23:08;;;;;;;10.85;7.18;;;;;;;7.50;69.96;100844.78;4997318;28;20038;-84
2022/09/30 05:25:34;;;;;;;10.23;7.60;;;;;;;7.44;69.54;100862.13;4981180;28;20113;-84
2022/09/30 05:28:00;;;;;;;10.20;7.70;;;;;;;7.36;70.79;100858.44;5014779;28;20451;-84
2022/09/30 05:30:26;;;;;;;12.18;7.10;;;;;;;7.32;70.22;100859.22;5014768;28;20057;-84
2022/09/30 05:32:52;;;;;;;10.10;7.25;;;;;;;7.28;70.85;100864.41;4997080;28;20168;-84
2022/09/30 05:35:17;;;;;;;11.15;7.72;;;;;;;7.30;70.49;100864.44;4965589;28;20109;-84
2022/09/30 05:37:43;;;;;;;9.25;7.55;;;;;;;7.24;69.83;100857.31;5014333;28;20026;-84
2022/09/30 05:40:08;;;;;;;16.25;7.30;;;;;;;7.23;71.00;100854.63;4996888;28;20038;-84
2022/09/30 05:42:35;;;;;;;11.77;7.53;;;;;;;7.28;71.25;100867.06;5015040;28;20029;-83
2022/09/30 05:45:05;;;;;;;12.35;7.85;;;;;;;7.36;70.83;100875.09;4997389;28;20034;-86
2022/09/30 05:47:32;;;;;;;10.43;7.25;;;;;;;7.28;69.77;100879.31;4997181;28;20030;-85
2022/09/30 05:49:58;;;;;;;9.48;7.20;;;;;;;7.29;70.78;100888.97;5014268;28;20037;-86
2022/09/30 05:52:24;;;;;;;10.85;6.93;;;;;;;7.28;70.36;100898.59;5014405;28;20374;-85
2022/09/30 05:54:50;;;;;;;10.30;7.45;;;;;;;7.13;70.83;100894.69;5014537;28;20520;-84
2022/09/30 05:57:16;;;;;;;10.65;7.28;;;;;;;7.14;71.24;100896.44;5014638;28;20029;-83
2022/09/30 05:59:42;;;;;;;9.50;7.35;;;;;;;7.14;71.54;100904.31;4997144;28;20041;-83
2022/09/30 06:02:09;;;;;;;9.65;7.45;;;;;;;7.08;71.74;100898.94;4996635;28;20366;-84
2022/09/30 06:04:34;;;;;;;9.18;7.53;;;;;;;7.25;71.90;100895.00;4980259;28;20090;-84
2022/09/30 06:06:59;;;;;;;12.00;7.40;;;;;;;7.46;70.65;100899.88;4964565;28;20066;-87
2022/09/30 06:09:25;;;;;;;9.77;7.25;;;;;;;7.51;70.58;100891.25;5014406;28;20404;-89
2022/09/30 06:11:51;;;;;;;10.60;7.47;;;;;;;7.62;70.88;100915.16;4980978;28;20061;-87
2022/09/30 06:14:18;;;;;;;11.75;7.00;;;;;;;7.66;70.50;100905.59;4997315;28;20076;-87
2022/09/30 06:16:44;;;;;;;10.35;6.90;;;;;;;7.78;70.04;100916.41;4996721;28;20026;-87
2022/09/30 06:19:10;;;;;;;10.20;7.30;;;;;;;7.76;70.81;100910.25;4980389;28;20033;-87
2022/09/30 06:21:35;;;;;;;9.90;6.90;;;;;;;7.84;71.17;100919.19;5014157;28;20022;-87
2022/09/30 06:24:01;;;;;;;13.68;7.32;;;;;;;7.88;71.37;100926.31;4980030;28;20030;-87
2022/09/30 06:26:26;;;;;;;9.13;7.38;;;;;;;7.87;71.48;100905.22;4996453;28;20152;-88
2022/09/30 06:28:52;;;;;;;10.27;7.30;;;;;;;7.98;71.85;100916.88;5013859;28;20350;-87
2022/09/30 06:31:17;;;;;;;12.13;7.40;;;;;;;8.17;71.87;100923.41;5013475;28;20141;-87
2022/09/30 06:33:45;;;;;;;10.65;7.65;;;;;;;8.32;72.26;100933.41;4980609;28;20034;-87
2022/09/30 06:36:11;;;;;;;11.32;8.30;;;;;;;8.39;71.90;100935.31;4996172;28;20124;-87
2022/09/30 06:38:40;;;;;;;11.48;7.75;;;;;;;8.52;72.09;100933.00;4996209;28;20050;-87
2022/09/30 06:41:06;;;;;;;9.60;8.07;;;;;;;8.61;71.89;100911.22;4997360;28;20034;-87
2022/09/30 06:43:34;;;;;;;10.55;8.18;;;;;;;8.86;71.79;100912.56;5013759;28;20030;-87
2022/09/30 06:46:00;;;;;;;12.82;8.25;;;;;;;9.10;71.76;100927.94;5014339;28;20029;-88
2022/09/30 06:48:28;;;;;;;10.98;7.80;;;;;;;9.31;70.82;100931.81;5013853;28;20057;-88
2022/09/30 06:50:57;;;;;;;12.23;8.63;;;;;;;9.41;71.18;100918.81;5012628;28;20060;-87
2022/09/30 06:53:22;;;;;;;12.75;9.43;;;;;;;9.62;71.70;100899.81;4995848;28;20029;-87
2022/09/30 06:55:54;;;;;;;12.35;8.93;;;;;;;9.85;70.94;100896.59;4996274;28;20030;-88
2022/09/30 06:58:23;;;;;;;14.13;9.80;;;;;;;10.05;71.05;100910.97;4996473;28;20056;-88
2022/09/30 07:01:00;;;;;;;12.27;9.80;;;;;;;10.12;71.53;100899.66;4996696;28;20318;-88
2022/09/30 07:03:30;;;;;;;15.50;11.50;;;;;;;10.18;72.11;100897.09;4996493;28;20096;-88
2022/09/30 07:06:01;;;;;;;17.65;11.43;;;;;;;10.31;72.23;100907.84;5013470;28;20104;-88
2022/09/30 07:08:30;;;;;;;17.45;12.30;;;;;;;10.26;72.56;100908.66;5013893;28;20022;-88
2022/09/30 07:10:57;;;;;;;16.92;12.20;;;;;;;10.40;73.04;100900.91;5013314;28;20474;-88
2022/09/30 07:13:23;;;;;;;18.17;11.88;;;;;;;10.57;73.14;100914.31;4999773;28;20013;-87
2022/09/30 07:15:53;;;;;;;20.45;12.00;;;;;;;10.56;72.91;100909.91;5016987;28;20026;-88
2022/09/30 07:18:28;;;;;;;17.70;12.20;;;;;;;10.62;73.27;100911.72;5017325;28;20033;-87
2022/09/30 07:20:54;;;;;;;15.38;11.57;;;;;;;10.79;73.56;100918.09;4999914;28;20025;-88
2022/09/30 07:23:26;;;;;;;19.38;12.55;;;;;;;10.94;72.91;100898.88;4999035;28;20029;-87
2022/09/30 07:25:55;;;;;;;18.25;12.82;;;;;;;11.19;72.66;100914.13;5018076;28;20026;-88
2022/09/30 07:28:26;;;;;;;16.48;11.98;;;;;;;11.27;72.34;100912.44;4999434;28;20026;-87
2022/09/30 07:30:51;;;;;;;18.45;12.35;;;;;;;11.53;72.19;100911.75;5000011;28;20030;-87
2022/09/30 07:33:19;;;;;;;18.75;12.27;;;;;;;11.83;72.02;100918.19;5015684;28;20367;-87
2022/09/30 07:35:53;;;;;;;16.63;12.30;;;;;;;11.94;71.84;100912.06;5016746;28;20080;-88
2022/09/30 07:38:21;;;;;;;17.50;12.55;;;;;;;12.15;71.14;100928.97;4998956;28;20026;-87
2022/09/30 07:41:03;;;;;;;17.90;12.10;;;;;;;12.37;70.20;100924.66;5016616;28;20022;-87
2022/09/30 07:46:23;;;;;;;;;;;;;;;13.00;69.62;100939.91;5013696;28;20034;-87
2022/09/30 07:48:51;;;;;;;15.75;12.25;;;;;;;12.95;70.16;100928.41;5016644;28;19912;-87
2022/09/30 07:51:34;;;;;;;18.52;12.57;;;;;;;13.13;70.22;100938.16;4998964;28;20028;-87
2022/09/30 07:54:04;;;;;;;18.15;12.65;;;;;;;13.26;68.76;100931.16;5016808;28;20402;-87
2022/09/30 07:56:30;;;;;;;17.55;12.88;;;;;;;13.38;68.75;100932.94;5016586;28;20026;-87
2022/09/30 07:58:59;;;;;;;18.77;13.13;;;;;;;13.51;68.65;100918.78;4998482;28;20022;-87
2022/09/30 08:01:30;;;;;;;20.30;13.15;;;;;;;13.44;68.55;100917.00;4998754;28;20025;-87
2022/09/30 08:04:00;;;;;;;17.60;12.85;;;;;;;13.51;68.76;100926.75;4999310;28;20065;-87
2022/09/30 08:06:27;;;;;;;18.33;12.57;;;;;;;13.60;68.81;100926.72;4998932;28;20401;-87
2022/09/30 08:08:57;;;;;;;17.65;12.88;;;;;;;13.88;68.29;100932.03;4998393;28;20026;-87
2022/09/30 08:11:24;;;;;;;18.38;12.40;;;;;;;14.04;66.99;100917.81;4998333;28;20049;-87
2022/09/30 08:13:55;;;;;;;19.20;12.90;;;;;;;14.47;67.85;100923.00;4998123;28;20063;-87
2022/09/30 08:16:22;;;;;;;18.30;12.80;;;;;;;14.63;66.76;100919.41;5016008;28;20473;-87
2022/09/30 08:18:53;;;;;;;15.50;11.60;;;;;;;14.76;65.68;100918.47;5015766;28;20088;-88
2022/09/30 08:21:19;;;;;;;17.83;12.38;;;;;;;14.90;64.26;100926.41;5016346;28;20457;-87
2022/09/30 08:23:44;;;;;;;14.70;11.45;;;;;;;14.93;64.28;100915.72;5015385;28;20026;-87
2022/09/30 08:26:11;;;;;;;17.13;11.10;;;;;;;15.22;63.09;100917.31;4982110;28;20572;-88
2022/09/30 08:28:40;;;;;;;20.13;12.82;;;;;;;15.12;63.51;100919.16;4998351;28;20096;-88
2022/09/30 08:31:16;;;;;;;15.90;11.77;;;;;;;15.06;63.95;100918.28;5015536;28;20040;-88
2022/09/30 08:33:43;;;;;;;17.70;11.75;;;;;;;15.00;63.71;100917.44;5014599;28;20045;-87
2022/09/30 08:36:14;;;;;;;16.02;12.02;;;;;;;15.23;64.22;100914.63;5015435;28;20038;-87
2022/09/30 08:38:43;;;;;;;17.38;11.77;;;;;;;15.43;63.19;100924.25;5015669;28;20105;-87
2022/09/30 08:41:36;;;;;;;18.45;12.68;;;;;;;15.38;63.81;100921.63;4997910;28;20053;-88
2022/09/30 08:44:41;;;;;;;18.00;12.82;;;;;;;15.50;62.77;100926.84;4998536;28;20072;-87
2022/09/30 08:47:19;;;;;;;18.75;12.82;;;;;;;15.58;63.26;100925.88;4986068;28;20119;-87
2022/09/30 08:50:19;;;;;;;20.02;13.90;;;;;;;15.78;62.19;100935.50;5015434;28;20036;-87
2022/09/30 08:52:48;;;;;;;16.23;13.43;;;;;;;16.03;61.25;100924.63;4997870;28;20026;-87
2022/09/30 08:55:44;;;;;;;17.58;12.85;;;;;;;16.42;61.08;100930.41;4997807;28;20469;-87
2022/09/30 08:58:27;;;;;;;16.17;12.73;;;;;;;16.65;59.39;100931.00;4995753;28;20033;-88
2022/09/30 09:00:56;;;;;;;16.75;13.25;;;;;;;17.03;58.98;100938.50;4997845;28;20061;-87
2022/09/30 09:03:29;;;;;;;17.77;12.50;;;;;;;17.17;57.15;100935.66;4997447;28;20377;-87
2022/09/30 09:06:43;;;;;;;15.55;12.00;;;;;;;17.36;57.47;100940.72;5014877;28;20049;-87
2022/09/30 09:09:56;;;;;;;16.17;12.18;;;;;;;17.62;56.93;100922.47;4918929;29;20131;-87
2022/09/30 09:12:44;;;;;;;16.50;11.23;;;;;;;17.75;56.81;100918.69;4983755;28;20041;-87
2022/09/30 09:15:53;;;;;;;13.00;10.48;;;;;;;17.85;56.67;100921.19;4997877;28;20114;-88
2022/09/30 09:18:27;;;;;;;12.52;10.07;;;;;;;17.86;56.18;100923.88;4998179;28;20353;-87
2022/09/30 09:20:58;;;;;;;13.07;9.18;;;;;;;18.13;55.43;100927.81;4997496;28;20018;-87
2022/09/30 09:23:31;;;;;;;13.20;9.80;;;;;;;18.20;54.89;100923.22;5013202;28;20026;-87
2022/09/30 09:25:58;;;;;;;13.73;9.70;;;;;;;18.17;54.99;100920.63;5014481;28;20026;-87
2022/09/30 09:29:01;;;;;;;13.25;8.75;;;;;;;18.55;54.84;100921.66;4997247;28;20022;-87
2022/09/30 09:31:26;;;;;;;;;;;;;;;18.61;53.94;100927.72;4997610;28;20088;-85
2022/09/30 09:33:59;;;;;;;11.07;9.40;;;;;;;18.43;55.63;100926.31;5014787;28;20342;-86
2022/09/30 09:36:46;;;;;;;12.50;9.30;;;;;;;18.95;53.61;100945.78;4997191;28;20030;-86
2022/09/30 09:39:22;;;;;;;12.27;8.93;;;;;;;19.47;54.09;100933.84;4997532;28;20034;-91
2022/09/30 09:42:15;;;;;;;12.48;8.38;;;;;;;19.67;51.75;100938.75;5014340;28;20374;-89
2022/09/30 09:44:54;;;;;;;12.48;8.88;;;;;;;19.79;51.33;100935.75;4915737;29;20092;-90
2022/09/30 09:47:20;;;;;;;12.55;8.27;;;;;;;19.70;50.90;100928.84;5006660;28;20042;-91
2022/09/30 09:49:54;;;;;;;10.77;7.97;;;;;;;19.49;51.43;100913.25;5013132;28;20474;-91
2022/09/30 09:52:23;;;;;;;11.32;7.72;;;;;;;19.51;52.50;100936.41;4997300;28;20057;-93
2022/09/30 09:54:58;;;;;;;9.75;6.97;;;;;;;19.60;51.18;100929.94;5014829;28;20061;-91
2022/09/30 09:57:31;;;;;;;11.15;7.78;;;;;;;19.31;52.07;100913.69;4997686;28;20033;-91
2022/09/30 10:03:11;;;;;;;11.02;7.43;;;;;;;18.84;52.84;100924.59;5014029;28;19913;-90
2022/09/30 10:05:59;;;;;;;11.45;7.65;;;;;;;18.81;53.73;100902.38;4996966;28;20030;-91
2022/09/30 10:08:24;;;;;;;11.27;8.00;;;;;;;19.22;52.83;100904.94;5014245;28;20057;-89
2022/09/30 10:11:03;;;;;;;10.05;7.55;;;;;;;19.33;52.95;100902.03;4996216;28;20561;-89
2022/09/30 10:13:39;;;;;;;9.32;7.65;;;;;;;19.19;52.54;100917.56;4996506;28;20052;-88
2022/09/30 10:16:24;;;;;;;13.27;7.57;;;;;;;18.86;51.72;100924.56;4996002;28;20125;-89
2022/09/30 10:18:53;;;;;;;11.20;7.85;;;;;;;18.77;52.54;100905.13;4996033;28;20034;-87
2022/09/30 10:21:22;;;;;;;13.13;7.68;;;;;;;19.21;52.54;100923.75;5013671;28;20080;-92
2022/09/30 10:23:47;;;;;;;10.43;7.25;;;;;;;19.30;51.58;100926.22;5014227;28;20031;-88
2022/09/30 10:26:13;;;;;;;9.18;7.13;;;;;;;19.28;51.65;100928.06;4980375;28;20036;-87
2022/09/30 10:28:49;;;;;;;9.60;7.25;;;;;;;19.41;52.28;100931.31;4996348;28;20030;-88
2022/09/30 10:31:23;;;;;;;9.02;6.75;;;;;;;19.60;50.51;100926.38;5013336;28;20018;-87
2022/09/30 10:34:21;;;;;;;9.32;7.55;;;;;;;19.45;51.35;100925.84;4992835;28;20050;-87
2022/09/30 10:36:47;;;;;;;9.27;6.78;;;;;;;19.67;50.30;100926.22;4969931;28;20034;-87
2022/09/30 10:39:23;;;;;;;9.95;6.07;;;;;;;19.76;48.90;100920.63;4977793;28;20047;-85
2022/09/30 10:41:51;;;;;;;8.55;6.32;;;;;;;20.19;49.62;100923.97;4993290;28;20064;-85
2022/09/30 10:44:23;;;;;;;9.15;6.47;;;;;;;20.44;49.38;100926.84;4994212;28;20455;-84
2022/09/30 10:46:52;;;;;;;10.30;6.45;;;;;;;20.72;48.20;100934.97;4995453;28;20034;-85
2022/09/30 10:49:49;;;;;;;10.30;6.10;;;;;;;21.10;48.98;100924.88;4997899;28;20030;-83
2022/09/30 10:52:29;;;;;;;10.93;6.80;;;;;;;21.08;47.65;100932.13;4996650;28;20045;-84
2022/09/30 10:54:59;;;;;;;6.68;5.70;;;;;;;21.24;47.64;100936.97;4997347;28;20037;-84
2022/09/30 10:57:31;;;;;;;8.15;5.75;;;;;;;21.16;46.59;100936.31;4997133;28;20025;-85
2022/09/30 11:00:18;;;;;;;7.00;5.28;;;;;;;20.76;47.07;100932.16;4996753;28;20049;-84
2022/09/30 11:02:58;;;;;;;8.00;4.88;;;;;;;20.53;45.93;100931.97;4997190;28;20034;-84
2022/09/30 11:05:55;;;;;;;5.70;4.63;;;;;;;20.27;47.77;100924.63;4997387;28;20057;-84
2022/09/30 11:08:27;;;;;;;8.55;4.55;;;;;;;20.11;47.34;100912.56;4985507;28;20038;-85
2022/09/30 11:11:04;;;;;;;8.00;5.20;;;;;;;19.84;48.62;100916.88;4997144;28;20369;-85
2022/09/30 11:13:51;;;;;;;7.78;4.72;;;;;;;19.79;48.46;100916.13;4997752;28;20033;-84
2022/09/30 11:16:31;;;;;;;8.23;4.15;;;;;;;19.43;49.83;100918.75;4997688;28;20022;-84
2022/09/30 11:19:06;;;;;;;6.68;4.18;;;;;;;19.10;50.19;100913.31;4998014;28;20018;-83
2022/09/30 11:21:37;;;;;;;5.47;3.50;;;;;;;18.99;49.46;100918.03;4997325;28;20027;-84
2022/09/30 11:24:30;;;;;;;4.05;3.10;;;;;;;19.10;48.89;100918.66;4997433;28;20034;-84
2022/09/30 11:27:20;;;;;;;4.85;3.22;;;;;;;19.54;48.66;100915.81;4996232;28;20469;-84
2022/09/30 11:29:51;;;;;;;4.00;3.00;;;;;;;19.54;48.11;100915.81;4997412;28;20061;-84
2022/09/30 11:32:41;;;;;;;4.65;3.03;;;;;;;19.59;49.16;100912.09;4991855;28;20364;-84
2022/09/30 11:35:22;;;;;;;5.72;2.80;;;;;;;19.99;47.28;100908.41;4978145;28;20043;-84
2022/09/30 11:38:22;;;;;;;4.72;2.90;;;;;;;20.23;47.52;100904.16;4977935;28;20026;-83
2022/09/30 11:41:08;;;;;;;5.07;3.15;;;;;;;20.03;47.09;100896.66;4976540;28;20027;-81
2022/09/30 11:44:04;;;;;;;4.47;3.10;;;;;;;20.10;47.76;100902.75;4977944;28;20470;-84
2022/09/30 11:47:08;;;;;;;7.57;3.05;;;;;;;19.94;46.45;100899.59;4978037;28;20118;-84
2022/09/30 11:50:10;;;;;;;5.32;3.05;;;;;;;19.73;47.62;100903.72;4936855;29;20484;-84
2022/09/30 11:52:41;;;;;;;4.82;2.70;;;;;;;19.68;46.88;100884.22;4936925;29;20024;-84
2022/09/30 11:55:42;;;;;;;4.57;3.03;;;;;;;19.63;46.03;100889.69;4967755;28;20447;-84
2022/09/30 11:58:12;;;;;;;3.75;2.83;;;;;;;19.32;47.07;100878.84;4992398;28;20026;-84